CJR5 weather

Gladstone Airport
Gladstone, Manitoba, Canada

Public forecast

Using degrees Celsius for public forecast. Weather courtesy of forecast.io.

Closest aviation weather report (METAR) to Gladstone Airport

Report is more than 6 hours old.

Closest report is Southport Airport, 30.2 nm (55.9 km) ESE. Retrieved 2019/12/13 23:00 UTC (1 day ago):

CYPG 132300Z 34019G24KT 12SM DRSN FEW041 BKN080 M15/M17 A3004 RMK SC2AC3 LAST OBS/NEXT 161200 UTC SLP198

Closest aviation forecast (TAF) to Gladstone Airport

Forecast is more than 12 hours old.

Closest forecast is Southport Airport, 30.2 nm (55.9 km) ESE. Retrieved 2019/12/13 18:33 UTC (2 days ago):

TAF CYPG 131730Z 1318/1406 35005KT P6SM BKN030 TEMPO 1318/1321 4SM -SN OVC020 BECMG 1318/1320 35012KT FM132100 35012KT P6SM BKN030 TEMPO 1321/1324 P6SM -SN RMK NXT FCST BY 140000Z